sensor_id;sensor_type;location;lat;lon;timestamp;P1;durP1;ratioP1;P2;durP2;ratioP2
82871;SDS011;72646;43.596;1.428;2023-09-12T00:01:00;5.95;;;2.20;;
82871;SDS011;72646;43.596;1.428;2023-09-12T00:03:30;6.50;;;2.00;;
82871;SDS011;72646;43.596;1.428;2023-09-12T00:05:56;6.40;;;2.10;;
82871;SDS011;72646;43.596;1.428;2023-09-12T00:08:23;7.13;;;2.17;;
82871;SDS011;72646;43.596;1.428;2023-09-12T00:13:44;7.13;;;1.80;;
82871;SDS011;72646;43.596;1.428;2023-09-12T00:16:09;6.13;;;1.90;;
82871;SDS011;72646;43.596;1.428;2023-09-12T00:18:36;6.93;;;2.00;;
82871;SDS011;72646;43.596;1.428;2023-09-12T00:21:05;6.25;;;2.20;;
82871;SDS011;72646;43.596;1.428;2023-09-12T00:23:31;6.78;;;2.05;;
82871;SDS011;72646;43.596;1.428;2023-09-12T00:25:57;6.93;;;1.98;;
82871;SDS011;72646;43.596;1.428;2023-09-12T00:28:23;7.20;;;2.10;;
82871;SDS011;72646;43.596;1.428;2023-09-12T00:30:49;5.25;;;2.00;;
82871;SDS011;72646;43.596;1.428;2023-09-12T00:33:14;5.78;;;2.10;;
82871;SDS011;72646;43.596;1.428;2023-09-12T00:35:40;6.13;;;2.20;;
82871;SDS011;72646;43.596;1.428;2023-09-12T00:38:06;7.32;;;2.03;;
82871;SDS011;72646;43.596;1.428;2023-09-12T00:40:32;6.78;;;2.10;;
82871;SDS011;72646;43.596;1.428;2023-09-12T00:42:58;7.60;;;2.10;;
82871;SDS011;72646;43.596;1.428;2023-09-12T00:45:24;6.07;;;2.10;;
82871;SDS011;72646;43.596;1.428;2023-09-12T00:47:49;6.20;;;2.10;;
82871;SDS011;72646;43.596;1.428;2023-09-12T00:50:16;6.90;;;2.25;;
82871;SDS011;72646;43.596;1.428;2023-09-12T00:52:44;7.95;;;2.30;;
82871;SDS011;72646;43.596;1.428;2023-09-12T00:55:10;7.10;;;2.20;;
82871;SDS011;72646;43.596;1.428;2023-09-12T00:57:36;5.78;;;2.20;;
82871;SDS011;72646;43.596;1.428;2023-09-12T01:00:03;7.35;;;2.13;;
82871;SDS011;72646;43.596;1.428;2023-09-12T01:02:43;5.78;;;2.10;;
82871;SDS011;72646;43.596;1.428;2023-09-12T01:05:11;5.82;;;2.10;;
82871;SDS011;72646;43.596;1.428;2023-09-12T01:07:39;6.70;;;2.20;;
82871;SDS011;72646;43.596;1.428;2023-09-12T01:10:07;5.63;;;2.05;;
82871;SDS011;72646;43.596;1.428;2023-09-12T01:14:59;6.30;;;2.07;;
82871;SDS011;72646;43.596;1.428;2023-09-12T01:17:25;6.25;;;2.15;;
82871;SDS011;72646;43.596;1.428;2023-09-12T01:19:51;5.65;;;2.00;;
82871;SDS011;72646;43.596;1.428;2023-09-12T01:28:12;6.65;;;2.30;;
82871;SDS011;72646;43.596;1.428;2023-09-12T01:30:42;7.50;;;2.05;;
82871;SDS011;72646;43.596;1.428;2023-09-12T01:33:11;7.22;;;2.30;;
82871;SDS011;72646;43.596;1.428;2023-09-12T01:35:37;6.97;;;2.10;;
82871;SDS011;72646;43.596;1.428;2023-09-12T01:38:02;7.70;;;2.28;;
82871;SDS011;72646;43.596;1.428;2023-09-12T01:40:33;5.95;;;2.05;;
82871;SDS011;72646;43.596;1.428;2023-09-12T01:43:05;7.45;;;2.70;;
82871;SDS011;72646;43.596;1.428;2023-09-12T01:45:32;7.00;;;2.25;;
82871;SDS011;72646;43.596;1.428;2023-09-12T01:50:25;6.60;;;2.20;;
82871;SDS011;72646;43.596;1.428;2023-09-12T01:52:53;7.07;;;2.20;;
82871;SDS011;72646;43.596;1.428;2023-09-12T01:55:19;7.30;;;2.22;;
82871;SDS011;72646;43.596;1.428;2023-09-12T01:57:46;6.30;;;2.30;;
82871;SDS011;72646;43.596;1.428;2023-09-12T02:00:12;7.57;;;2.60;;
82871;SDS011;72646;43.596;1.428;2023-09-12T02:02:38;6.80;;;2.42;;
82871;SDS011;72646;43.596;1.428;2023-09-12T02:05:17;8.98;;;2.63;;
82871;SDS011;72646;43.596;1.428;2023-09-12T02:07:45;6.28;;;2.50;;
82871;SDS011;72646;43.596;1.428;2023-09-12T02:10:11;7.90;;;2.60;;
82871;SDS011;72646;43.596;1.428;2023-09-12T02:12:37;7.18;;;2.45;;
82871;SDS011;72646;43.596;1.428;2023-09-12T02:15:03;7.30;;;2.65;;
82871;SDS011;72646;43.596;1.428;2023-09-12T02:17:29;8.10;;;2.70;;
82871;SDS011;72646;43.596;1.428;2023-09-12T02:19:54;8.80;;;2.90;;
82871;SDS011;72646;43.596;1.428;2023-09-12T02:22:19;8.90;;;3.10;;
82871;SDS011;72646;43.596;1.428;2023-09-12T02:24:45;9.23;;;3.35;;
82871;SDS011;72646;43.596;1.428;2023-09-12T02:27:10;7.93;;;2.90;;
82871;SDS011;72646;43.596;1.428;2023-09-12T02:29:38;6.75;;;2.63;;
82871;SDS011;72646;43.596;1.428;2023-09-12T02:32:04;7.70;;;2.60;;
82871;SDS011;72646;43.596;1.428;2023-09-12T02:34:30;6.95;;;3.00;;
82871;SDS011;72646;43.596;1.428;2023-09-12T02:36:56;6.97;;;2.65;;
82871;SDS011;72646;43.596;1.428;2023-09-12T02:39:21;7.93;;;2.95;;
82871;SDS011;72646;43.596;1.428;2023-09-12T02:41:47;7.50;;;2.75;;
82871;SDS011;72646;43.596;1.428;2023-09-12T02:44:12;8.40;;;2.83;;
82871;SDS011;72646;43.596;1.428;2023-09-12T02:46:38;7.63;;;3.03;;
82871;SDS011;72646;43.596;1.428;2023-09-12T02:49:03;9.57;;;3.03;;
82871;SDS011;72646;43.596;1.428;2023-09-12T02:51:28;7.20;;;3.00;;
82871;SDS011;72646;43.596;1.428;2023-09-12T02:53:54;8.32;;;3.00;;
82871;SDS011;72646;43.596;1.428;2023-09-12T02:56:20;6.82;;;3.17;;
82871;SDS011;72646;43.596;1.428;2023-09-12T02:58:46;8.85;;;3.10;;
82871;SDS011;72646;43.596;1.428;2023-09-12T03:01:18;7.32;;;3.17;;
82871;SDS011;72646;43.596;1.428;2023-09-12T03:03:48;10.15;;;3.40;;
82871;SDS011;72646;43.596;1.428;2023-09-12T03:06:16;7.38;;;2.92;;
82871;SDS011;72646;43.596;1.428;2023-09-12T03:08:43;8.60;;;3.00;;
82871;SDS011;72646;43.596;1.428;2023-09-12T03:11:09;8.05;;;3.33;;
82871;SDS011;72646;43.596;1.428;2023-09-12T03:13:36;8.55;;;3.38;;
82871;SDS011;72646;43.596;1.428;2023-09-12T03:16:02;8.75;;;3.33;;
82871;SDS011;72646;43.596;1.428;2023-09-12T03:18:28;7.75;;;2.78;;
82871;SDS011;72646;43.596;1.428;2023-09-12T03:20:54;8.02;;;3.55;;
82871;SDS011;72646;43.596;1.428;2023-09-12T03:23:19;9.15;;;3.15;;
82871;SDS011;72646;43.596;1.428;2023-09-12T03:25:45;6.97;;;3.15;;
82871;SDS011;72646;43.596;1.428;2023-09-12T03:28:10;7.95;;;3.13;;
82871;SDS011;72646;43.596;1.428;2023-09-12T03:30:36;8.48;;;3.40;;
82871;SDS011;72646;43.596;1.428;2023-09-12T03:33:03;7.80;;;3.38;;
82871;SDS011;72646;43.596;1.428;2023-09-12T03:37:54;9.13;;;3.83;;
82871;SDS011;72646;43.596;1.428;2023-09-12T03:40:20;8.63;;;3.30;;
82871;SDS011;72646;43.596;1.428;2023-09-12T03:42:45;7.90;;;3.70;;
82871;SDS011;72646;43.596;1.428;2023-09-12T03:45:11;9.60;;;3.40;;
82871;SDS011;72646;43.596;1.428;2023-09-12T03:47:36;8.88;;;3.33;;
82871;SDS011;72646;43.596;1.428;2023-09-12T03:50:02;9.38;;;3.33;;
82871;SDS011;72646;43.596;1.428;2023-09-12T03:52:28;9.27;;;3.22;;
82871;SDS011;72646;43.596;1.428;2023-09-12T03:54:54;7.72;;;3.40;;
82871;SDS011;72646;43.596;1.428;2023-09-12T03:57:19;9.43;;;3.60;;
82871;SDS011;72646;43.596;1.428;2023-09-12T03:59:45;9.95;;;3.70;;
82871;SDS011;72646;43.596;1.428;2023-09-12T04:02:11;9.57;;;4.30;;
82871;SDS011;72646;43.596;1.428;2023-09-12T04:04:37;10.95;;;3.60;;
82871;SDS011;72646;43.596;1.428;2023-09-12T04:07:03;9.90;;;4.20;;
82871;SDS011;72646;43.596;1.428;2023-09-12T04:09:29;6.70;;;3.22;;
82871;SDS011;72646;43.596;1.428;2023-09-12T04:11:54;8.38;;;3.50;;
82871;SDS011;72646;43.596;1.428;2023-09-12T04:14:20;9.27;;;3.40;;
82871;SDS011;72646;43.596;1.428;2023-09-12T04:16:46;8.65;;;3.20;;
82871;SDS011;72646;43.596;1.428;2023-09-12T04:19:13;8.25;;;3.15;;
82871;SDS011;72646;43.596;1.428;2023-09-12T04:21:39;7.78;;;3.05;;
82871;SDS011;72646;43.596;1.428;2023-09-12T04:24:04;7.78;;;2.95;;
82871;SDS011;72646;43.596;1.428;2023-09-12T04:26:30;8.63;;;2.88;;
82871;SDS011;72646;43.596;1.428;2023-09-12T04:28:56;7.70;;;3.45;;
82871;SDS011;72646;43.596;1.428;2023-09-12T04:31:21;7.50;;;3.03;;
82871;SDS011;72646;43.596;1.428;2023-09-12T04:33:47;8.75;;;3.72;;
82871;SDS011;72646;43.596;1.428;2023-09-12T04:36:12;6.93;;;3.30;;
82871;SDS011;72646;43.596;1.428;2023-09-12T04:38:37;8.18;;;3.50;;
82871;SDS011;72646;43.596;1.428;2023-09-12T04:41:03;7.15;;;3.10;;
82871;SDS011;72646;43.596;1.428;2023-09-12T04:43:31;7.65;;;3.28;;
82871;SDS011;72646;43.596;1.428;2023-09-12T04:45:56;7.45;;;3.00;;
82871;SDS011;72646;43.596;1.428;2023-09-12T04:48:22;6.95;;;3.03;;
82871;SDS011;72646;43.596;1.428;2023-09-12T04:50:48;7.00;;;3.25;;
82871;SDS011;72646;43.596;1.428;2023-09-12T04:53:14;6.68;;;2.90;;
82871;SDS011;72646;43.596;1.428;2023-09-12T04:55:39;7.95;;;3.13;;
82871;SDS011;72646;43.596;1.428;2023-09-12T04:58:05;9.98;;;2.97;;
82871;SDS011;72646;43.596;1.428;2023-09-12T05:00:31;6.93;;;3.08;;
82871;SDS011;72646;43.596;1.428;2023-09-12T05:02:57;7.55;;;3.35;;
82871;SDS011;72646;43.596;1.428;2023-09-12T05:05:23;8.73;;;3.13;;
82871;SDS011;72646;43.596;1.428;2023-09-12T05:07:48;7.45;;;3.22;;
82871;SDS011;72646;43.596;1.428;2023-09-12T05:10:14;9.73;;;3.30;;
82871;SDS011;72646;43.596;1.428;2023-09-12T05:12:39;7.68;;;3.20;;
82871;SDS011;72646;43.596;1.428;2023-09-12T05:15:05;6.57;;;3.25;;
82871;SDS011;72646;43.596;1.428;2023-09-12T05:17:31;6.93;;;3.20;;
82871;SDS011;72646;43.596;1.428;2023-09-12T05:19:56;7.88;;;3.17;;
82871;SDS011;72646;43.596;1.428;2023-09-12T05:22:22;8.40;;;3.50;;
82871;SDS011;72646;43.596;1.428;2023-09-12T05:24:47;9.05;;;3.28;;
82871;SDS011;72646;43.596;1.428;2023-09-12T05:27:13;8.38;;;3.55;;
82871;SDS011;72646;43.596;1.428;2023-09-12T05:29:38;8.77;;;3.72;;
82871;SDS011;72646;43.596;1.428;2023-09-12T05:32:04;8.07;;;3.57;;
82871;SDS011;72646;43.596;1.428;2023-09-12T05:34:30;9.73;;;3.38;;
82871;SDS011;72646;43.596;1.428;2023-09-12T05:36:56;7.70;;;3.17;;
82871;SDS011;72646;43.596;1.428;2023-09-12T05:39:22;8.15;;;3.72;;
82871;SDS011;72646;43.596;1.428;2023-09-12T05:41:48;8.02;;;3.03;;
82871;SDS011;72646;43.596;1.428;2023-09-12T05:44:14;8.05;;;3.50;;
82871;SDS011;72646;43.596;1.428;2023-09-12T05:46:44;9.55;;;3.78;;
82871;SDS011;72646;43.596;1.428;2023-09-12T05:49:11;9.10;;;3.65;;
82871;SDS011;72646;43.596;1.428;2023-09-12T05:51:36;7.43;;;3.55;;
82871;SDS011;72646;43.596;1.428;2023-09-12T05:54:02;7.20;;;3.55;;
82871;SDS011;72646;43.596;1.428;2023-09-12T05:56:28;8.02;;;3.30;;
82871;SDS011;72646;43.596;1.428;2023-09-12T05:58:53;8.65;;;3.60;;
82871;SDS011;72646;43.596;1.428;2023-09-12T06:01:19;7.60;;;3.35;;
82871;SDS011;72646;43.596;1.428;2023-09-12T06:03:45;9.57;;;3.58;;
82871;SDS011;72646;43.596;1.428;2023-09-12T06:06:10;8.38;;;3.90;;
82871;SDS011;72646;43.596;1.428;2023-09-12T06:11:02;8.23;;;3.47;;
82871;SDS011;72646;43.596;1.428;2023-09-12T06:13:27;7.43;;;3.70;;
82871;SDS011;72646;43.596;1.428;2023-09-12T06:15:53;8.95;;;4.10;;
82871;SDS011;72646;43.596;1.428;2023-09-12T06:18:18;10.18;;;4.18;;
82871;SDS011;72646;43.596;1.428;2023-09-12T06:20:44;8.32;;;4.00;;
82871;SDS011;72646;43.596;1.428;2023-09-12T06:23:10;8.10;;;3.70;;
82871;SDS011;72646;43.596;1.428;2023-09-12T06:25:35;7.22;;;3.50;;
82871;SDS011;72646;43.596;1.428;2023-09-12T06:28:01;8.57;;;3.92;;
82871;SDS011;72646;43.596;1.428;2023-09-12T06:30:26;8.95;;;3.45;;
82871;SDS011;72646;43.596;1.428;2023-09-12T06:32:52;7.68;;;4.03;;
82871;SDS011;72646;43.596;1.428;2023-09-12T06:35:17;11.80;;;3.90;;
82871;SDS011;72646;43.596;1.428;2023-09-12T06:37:43;12.43;;;3.42;;
82871;SDS011;72646;43.596;1.428;2023-09-12T06:40:09;9.32;;;3.70;;
82871;SDS011;72646;43.596;1.428;2023-09-12T06:42:34;9.10;;;3.70;;
82871;SDS011;72646;43.596;1.428;2023-09-12T06:45:00;17.45;;;4.45;;
82871;SDS011;72646;43.596;1.428;2023-09-12T06:47:25;13.13;;;3.85;;
82871;SDS011;72646;43.596;1.428;2023-09-12T06:49:50;10.68;;;3.20;;
82871;SDS011;72646;43.596;1.428;2023-09-12T06:52:16;11.63;;;3.75;;
82871;SDS011;72646;43.596;1.428;2023-09-12T06:54:41;7.82;;;3.30;;
82871;SDS011;72646;43.596;1.428;2023-09-12T06:57:07;10.25;;;3.47;;
82871;SDS011;72646;43.596;1.428;2023-09-12T06:59:32;9.25;;;3.53;;
82871;SDS011;72646;43.596;1.428;2023-09-12T07:01:58;10.57;;;3.15;;
82871;SDS011;72646;43.596;1.428;2023-09-12T07:04:23;8.52;;;3.45;;
82871;SDS011;72646;43.596;1.428;2023-09-12T07:06:50;9.10;;;3.35;;
82871;SDS011;72646;43.596;1.428;2023-09-12T07:09:16;7.20;;;3.13;;
82871;SDS011;72646;43.596;1.428;2023-09-12T07:11:42;9.55;;;3.20;;
82871;SDS011;72646;43.596;1.428;2023-09-12T07:14:08;8.25;;;3.30;;
82871;SDS011;72646;43.596;1.428;2023-09-12T07:18:54;10.70;;;3.90;;
82871;SDS011;72646;43.596;1.428;2023-09-12T07:21:19;9.02;;;3.15;;
82871;SDS011;72646;43.596;1.428;2023-09-12T07:23:47;8.23;;;3.42;;
82871;SDS011;72646;43.596;1.428;2023-09-12T07:26:13;9.95;;;3.60;;
82871;SDS011;72646;43.596;1.428;2023-09-12T07:28:39;10.25;;;4.95;;
82871;SDS011;72646;43.596;1.428;2023-09-12T07:31:05;15.15;;;7.97;;
82871;SDS011;72646;43.596;1.428;2023-09-12T07:33:31;15.15;;;7.18;;
82871;SDS011;72646;43.596;1.428;2023-09-12T07:35:56;13.55;;;6.43;;
82871;SDS011;72646;43.596;1.428;2023-09-12T07:38:22;14.68;;;6.80;;
82871;SDS011;72646;43.596;1.428;2023-09-12T07:40:47;11.43;;;5.78;;
82871;SDS011;72646;43.596;1.428;2023-09-12T07:43:13;12.30;;;5.47;;
82871;SDS011;72646;43.596;1.428;2023-09-12T07:45:38;11.93;;;6.28;;
82871;SDS011;72646;43.596;1.428;2023-09-12T07:48:06;9.80;;;5.30;;
82871;SDS011;72646;43.596;1.428;2023-09-12T07:50:32;13.20;;;5.22;;
82871;SDS011;72646;43.596;1.428;2023-09-12T07:53:18;9.80;;;5.10;;
82871;SDS011;72646;43.596;1.428;2023-09-12T07:55:44;11.80;;;5.15;;
82871;SDS011;72646;43.596;1.428;2023-09-12T07:58:17;10.13;;;4.88;;
82871;SDS011;72646;43.596;1.428;2023-09-12T08:00:43;10.90;;;4.78;;
82871;SDS011;72646;43.596;1.428;2023-09-12T08:03:09;10.45;;;4.95;;
82871;SDS011;72646;43.596;1.428;2023-09-12T08:05:34;9.18;;;4.55;;
82871;SDS011;72646;43.596;1.428;2023-09-12T08:08:00;8.93;;;4.00;;
82871;SDS011;72646;43.596;1.428;2023-09-12T08:10:26;10.77;;;5.03;;
82871;SDS011;72646;43.596;1.428;2023-09-12T08:12:51;9.32;;;4.53;;
82871;SDS011;72646;43.596;1.428;2023-09-12T08:15:17;10.18;;;4.05;;
82871;SDS011;72646;43.596;1.428;2023-09-12T08:17:43;10.57;;;3.90;;
82871;SDS011;72646;43.596;1.428;2023-09-12T08:20:08;10.77;;;4.18;;
82871;SDS011;72646;43.596;1.428;2023-09-12T08:22:35;9.25;;;4.22;;
82871;SDS011;72646;43.596;1.428;2023-09-12T08:25:01;8.82;;;3.83;;
82871;SDS011;72646;43.596;1.428;2023-09-12T08:27:27;12.00;;;4.35;;
82871;SDS011;72646;43.596;1.428;2023-09-12T08:29:53;7.95;;;3.63;;
82871;SDS011;72646;43.596;1.428;2023-09-12T08:32:18;8.77;;;4.03;;
82871;SDS011;72646;43.596;1.428;2023-09-12T08:34:44;10.32;;;3.97;;
82871;SDS011;72646;43.596;1.428;2023-09-12T08:37:10;7.60;;;3.47;;
82871;SDS011;72646;43.596;1.428;2023-09-12T08:39:42;9.27;;;3.85;;
82871;SDS011;72646;43.596;1.428;2023-09-12T08:42:11;8.30;;;4.03;;
82871;SDS011;72646;43.596;1.428;2023-09-12T08:44:39;7.78;;;3.80;;
82871;SDS011;72646;43.596;1.428;2023-09-12T08:47:05;8.95;;;3.72;;
82871;SDS011;72646;43.596;1.428;2023-09-12T08:49:33;8.85;;;3.60;;
82871;SDS011;72646;43.596;1.428;2023-09-12T08:52:01;9.88;;;3.90;;
82871;SDS011;72646;43.596;1.428;2023-09-12T08:54:27;8.15;;;4.00;;
82871;SDS011;72646;43.596;1.428;2023-09-12T08:56:53;9.48;;;4.22;;
82871;SDS011;72646;43.596;1.428;2023-09-12T08:59:19;6.97;;;3.33;;
82871;SDS011;72646;43.596;1.428;2023-09-12T09:01:45;8.45;;;3.45;;
82871;SDS011;72646;43.596;1.428;2023-09-12T09:06:37;8.27;;;3.60;;
82871;SDS011;72646;43.596;1.428;2023-09-12T09:09:07;8.15;;;4.22;;
82871;SDS011;72646;43.596;1.428;2023-09-12T09:11:33;7.70;;;3.70;;
82871;SDS011;72646;43.596;1.428;2023-09-12T09:13:59;8.27;;;3.35;;
82871;SDS011;72646;43.596;1.428;2023-09-12T09:16:27;7.90;;;3.55;;
82871;SDS011;72646;43.596;1.428;2023-09-12T09:18:57;8.50;;;3.22;;
82871;SDS011;72646;43.596;1.428;2023-09-12T09:21:28;7.88;;;3.30;;
82871;SDS011;72646;43.596;1.428;2023-09-12T09:23:57;8.77;;;3.60;;
82871;SDS011;72646;43.596;1.428;2023-09-12T09:26:24;8.88;;;3.30;;
82871;SDS011;72646;43.596;1.428;2023-09-12T09:31:37;9.20;;;3.60;;
82871;SDS011;72646;43.596;1.428;2023-09-12T09:34:10;6.63;;;3.15;;
82871;SDS011;72646;43.596;1.428;2023-09-12T09:36:42;6.93;;;2.83;;
82871;SDS011;72646;43.596;1.428;2023-09-12T09:39:09;7.32;;;3.33;;
82871;SDS011;72646;43.596;1.428;2023-09-12T09:41:36;6.95;;;3.47;;
82871;SDS011;72646;43.596;1.428;2023-09-12T09:44:03;8.18;;;3.53;;
82871;SDS011;72646;43.596;1.428;2023-09-12T09:46:32;8.07;;;3.22;;
82871;SDS011;72646;43.596;1.428;2023-09-12T09:48:58;9.68;;;3.53;;
82871;SDS011;72646;43.596;1.428;2023-09-12T09:51:25;6.75;;;3.22;;
82871;SDS011;72646;43.596;1.428;2023-09-12T09:53:51;7.35;;;3.45;;
82871;SDS011;72646;43.596;1.428;2023-09-12T09:56:17;7.10;;;3.20;;
82871;SDS011;72646;43.596;1.428;2023-09-12T09:58:46;8.77;;;3.88;;
82871;SDS011;72646;43.596;1.428;2023-09-12T10:01:20;7.00;;;3.17;;
82871;SDS011;72646;43.596;1.428;2023-09-12T10:03:52;6.00;;;3.10;;
82871;SDS011;72646;43.596;1.428;2023-09-12T10:06:19;7.32;;;3.25;;
82871;SDS011;72646;43.596;1.428;2023-09-12T10:08:46;7.60;;;3.60;;
82871;SDS011;72646;43.596;1.428;2023-09-12T10:11:16;7.18;;;3.10;;
82871;SDS011;72646;43.596;1.428;2023-09-12T10:13:53;7.32;;;3.05;;
82871;SDS011;72646;43.596;1.428;2023-09-12T10:16:25;9.23;;;3.08;;
82871;SDS011;72646;43.596;1.428;2023-09-12T10:18:59;6.93;;;3.17;;
82871;SDS011;72646;43.596;1.428;2023-09-12T10:21:40;7.53;;;3.13;;
82871;SDS011;72646;43.596;1.428;2023-09-12T10:24:11;7.22;;;3.15;;
82871;SDS011;72646;43.596;1.428;2023-09-12T10:26:39;6.32;;;2.83;;
82871;SDS011;72646;43.596;1.428;2023-09-12T10:29:09;6.80;;;2.95;;
82871;SDS011;72646;43.596;1.428;2023-09-12T10:31:37;7.20;;;3.47;;
82871;SDS011;72646;43.596;1.428;2023-09-12T10:34:03;6.55;;;2.85;;
82871;SDS011;72646;43.596;1.428;2023-09-12T10:36:31;7.32;;;3.05;;
82871;SDS011;72646;43.596;1.428;2023-09-12T10:38:57;6.55;;;3.00;;
82871;SDS011;72646;43.596;1.428;2023-09-12T10:41:24;6.72;;;2.88;;
82871;SDS011;72646;43.596;1.428;2023-09-12T10:43:51;7.60;;;3.20;;
82871;SDS011;72646;43.596;1.428;2023-09-12T10:46:18;7.28;;;3.00;;
82871;SDS011;72646;43.596;1.428;2023-09-12T10:48:43;6.47;;;2.78;;
82871;SDS011;72646;43.596;1.428;2023-09-12T10:51:09;7.10;;;3.45;;
82871;SDS011;72646;43.596;1.428;2023-09-12T10:53:37;6.43;;;3.13;;
82871;SDS011;72646;43.596;1.428;2023-09-12T11:01:41;6.68;;;3.22;;
82871;SDS011;72646;43.596;1.428;2023-09-12T11:06:45;8.13;;;3.30;;
82871;SDS011;72646;43.596;1.428;2023-09-12T11:09:32;6.60;;;3.30;;
82871;SDS011;72646;43.596;1.428;2023-09-12T11:12:02;7.75;;;3.92;;
82871;SDS011;72646;43.596;1.428;2023-09-12T11:14:30;6.28;;;3.15;;
82871;SDS011;72646;43.596;1.428;2023-09-12T11:19:49;7.75;;;3.47;;
82871;SDS011;72646;43.596;1.428;2023-09-12T11:22:29;6.22;;;3.10;;
82871;SDS011;72646;43.596;1.428;2023-09-12T11:25:02;8.00;;;2.92;;
82871;SDS011;72646;43.596;1.428;2023-09-12T11:27:43;7.03;;;3.15;;
82871;SDS011;72646;43.596;1.428;2023-09-12T11:30:11;7.32;;;3.25;;
82871;SDS011;72646;43.596;1.428;2023-09-12T11:32:37;6.93;;;3.10;;
82871;SDS011;72646;43.596;1.428;2023-09-12T11:35:06;7.18;;;2.95;;
82871;SDS011;72646;43.596;1.428;2023-09-12T11:37:32;6.88;;;3.17;;
82871;SDS011;72646;43.596;1.428;2023-09-12T11:40:00;7.90;;;3.13;;
82871;SDS011;72646;43.596;1.428;2023-09-12T11:42:26;6.85;;;3.05;;
82871;SDS011;72646;43.596;1.428;2023-09-12T11:44:52;6.68;;;2.80;;
82871;SDS011;72646;43.596;1.428;2023-09-12T11:47:18;7.18;;;3.00;;
82871;SDS011;72646;43.596;1.428;2023-09-12T11:49:43;7.88;;;3.13;;
82871;SDS011;72646;43.596;1.428;2023-09-12T11:52:09;7.65;;;3.42;;
82871;SDS011;72646;43.596;1.428;2023-09-12T11:54:38;9.10;;;3.15;;
82871;SDS011;72646;43.596;1.428;2023-09-12T11:57:58;8.77;;;3.15;;
82871;SDS011;72646;43.596;1.428;2023-09-12T12:00:28;6.90;;;2.60;;
82871;SDS011;72646;43.596;1.428;2023-09-12T12:02:54;13.88;;;3.40;;
82871;SDS011;72646;43.596;1.428;2023-09-12T12:05:20;6.32;;;3.00;;
82871;SDS011;72646;43.596;1.428;2023-09-12T12:07:46;10.75;;;3.20;;
82871;SDS011;72646;43.596;1.428;2023-09-12T12:10:13;7.40;;;2.88;;
82871;SDS011;72646;43.596;1.428;2023-09-12T12:12:39;7.50;;;2.97;;
82871;SDS011;72646;43.596;1.428;2023-09-12T12:15:09;8.30;;;3.22;;
82871;SDS011;72646;43.596;1.428;2023-09-12T12:17:41;7.53;;;2.88;;
82871;SDS011;72646;43.596;1.428;2023-09-12T12:20:07;6.85;;;2.97;;
82871;SDS011;72646;43.596;1.428;2023-09-12T12:22:36;6.97;;;2.97;;
82871;SDS011;72646;43.596;1.428;2023-09-12T12:25:06;7.40;;;3.05;;
82871;SDS011;72646;43.596;1.428;2023-09-12T12:27:39;9.00;;;3.33;;
82871;SDS011;72646;43.596;1.428;2023-09-12T12:30:09;8.95;;;3.22;;
82871;SDS011;72646;43.596;1.428;2023-09-12T12:32:46;8.30;;;3.20;;
82871;SDS011;72646;43.596;1.428;2023-09-12T12:35:20;9.27;;;3.80;;
82871;SDS011;72646;43.596;1.428;2023-09-12T12:37:49;9.27;;;3.60;;
82871;SDS011;72646;43.596;1.428;2023-09-12T12:40:21;7.38;;;3.22;;
82871;SDS011;72646;43.596;1.428;2023-09-12T12:43:03;6.75;;;2.92;;
82871;SDS011;72646;43.596;1.428;2023-09-12T12:45:28;6.20;;;2.88;;
82871;SDS011;72646;43.596;1.428;2023-09-12T12:47:57;7.55;;;3.40;;
82871;SDS011;72646;43.596;1.428;2023-09-12T12:50:24;6.97;;;3.20;;
82871;SDS011;72646;43.596;1.428;2023-09-12T12:52:50;10.43;;;3.53;;
82871;SDS011;72646;43.596;1.428;2023-09-12T12:55:15;8.10;;;3.42;;
82871;SDS011;72646;43.596;1.428;2023-09-12T12:57:42;7.03;;;3.05;;
82871;SDS011;72646;43.596;1.428;2023-09-12T13:00:09;9.38;;;3.25;;
82871;SDS011;72646;43.596;1.428;2023-09-12T13:02:39;7.47;;;3.20;;
82871;SDS011;72646;43.596;1.428;2023-09-12T13:05:06;8.20;;;3.30;;
82871;SDS011;72646;43.596;1.428;2023-09-12T13:07:45;7.43;;;2.80;;
82871;SDS011;72646;43.596;1.428;2023-09-12T13:10:11;6.45;;;2.67;;
82871;SDS011;72646;43.596;1.428;2023-09-12T13:12:40;7.38;;;3.22;;
82871;SDS011;72646;43.596;1.428;2023-09-12T13:15:05;8.00;;;2.85;;
82871;SDS011;72646;43.596;1.428;2023-09-12T13:17:31;7.60;;;3.15;;
82871;SDS011;72646;43.596;1.428;2023-09-12T13:19:57;9.27;;;3.00;;
82871;SDS011;72646;43.596;1.428;2023-09-12T13:22:23;7.15;;;3.28;;
82871;SDS011;72646;43.596;1.428;2023-09-12T13:24:48;8.68;;;3.13;;
82871;SDS011;72646;43.596;1.428;2023-09-12T13:27:18;7.88;;;3.13;;
82871;SDS011;72646;43.596;1.428;2023-09-12T13:29:44;6.63;;;2.75;;
82871;SDS011;72646;43.596;1.428;2023-09-12T13:32:09;6.35;;;3.03;;
82871;SDS011;72646;43.596;1.428;2023-09-12T13:34:35;7.72;;;3.15;;
82871;SDS011;72646;43.596;1.428;2023-09-12T13:37:00;7.57;;;3.30;;
82871;SDS011;72646;43.596;1.428;2023-09-12T13:39:26;6.80;;;3.35;;
82871;SDS011;72646;43.596;1.428;2023-09-12T13:41:51;7.07;;;2.88;;
82871;SDS011;72646;43.596;1.428;2023-09-12T13:44:17;6.82;;;3.15;;
82871;SDS011;72646;43.596;1.428;2023-09-12T13:46:43;6.80;;;3.00;;
82871;SDS011;72646;43.596;1.428;2023-09-12T13:49:11;7.38;;;3.30;;
82871;SDS011;72646;43.596;1.428;2023-09-12T13:51:36;7.50;;;3.83;;
82871;SDS011;72646;43.596;1.428;2023-09-12T13:54:02;7.72;;;3.63;;
82871;SDS011;72646;43.596;1.428;2023-09-12T13:56:39;8.52;;;3.60;;
82871;SDS011;72646;43.596;1.428;2023-09-12T13:59:05;7.63;;;3.55;;
82871;SDS011;72646;43.596;1.428;2023-09-12T14:04:04;8.75;;;4.00;;
82871;SDS011;72646;43.596;1.428;2023-09-12T14:06:31;7.63;;;3.78;;
82871;SDS011;72646;43.596;1.428;2023-09-12T14:08:58;11.20;;;3.85;;
82871;SDS011;72646;43.596;1.428;2023-09-12T14:11:28;7.60;;;3.80;;
82871;SDS011;72646;43.596;1.428;2023-09-12T14:13:54;9.48;;;4.03;;
82871;SDS011;72646;43.596;1.428;2023-09-12T14:16:19;7.40;;;3.60;;
82871;SDS011;72646;43.596;1.428;2023-09-12T14:18:45;7.47;;;3.95;;
82871;SDS011;72646;43.596;1.428;2023-09-12T14:21:10;8.20;;;3.85;;
82871;SDS011;72646;43.596;1.428;2023-09-12T14:23:36;7.18;;;3.95;;
82871;SDS011;72646;43.596;1.428;2023-09-12T14:26:01;7.43;;;3.60;;
82871;SDS011;72646;43.596;1.428;2023-09-12T14:28:27;9.65;;;3.78;;
82871;SDS011;72646;43.596;1.428;2023-09-12T14:30:53;10.10;;;3.60;;
82871;SDS011;72646;43.596;1.428;2023-09-12T14:33:20;8.13;;;3.85;;
82871;SDS011;72646;43.596;1.428;2023-09-12T14:35:46;8.82;;;3.28;;
82871;SDS011;72646;43.596;1.428;2023-09-12T14:38:12;7.30;;;3.47;;
82871;SDS011;72646;43.596;1.428;2023-09-12T14:40:38;11.05;;;3.30;;
82871;SDS011;72646;43.596;1.428;2023-09-12T14:43:04;6.78;;;3.28;;
82871;SDS011;72646;43.596;1.428;2023-09-12T14:45:33;8.23;;;3.90;;
82871;SDS011;72646;43.596;1.428;2023-09-12T14:47:59;7.00;;;3.60;;
82871;SDS011;72646;43.596;1.428;2023-09-12T14:50:24;9.45;;;3.92;;
82871;SDS011;72646;43.596;1.428;2023-09-12T14:52:54;9.73;;;3.80;;
82871;SDS011;72646;43.596;1.428;2023-09-12T14:55:22;8.57;;;3.50;;
82871;SDS011;72646;43.596;1.428;2023-09-12T14:57:47;6.88;;;3.30;;
82871;SDS011;72646;43.596;1.428;2023-09-12T15:00:15;7.63;;;3.70;;
82871;SDS011;72646;43.596;1.428;2023-09-12T15:02:41;7.63;;;3.75;;
82871;SDS011;72646;43.596;1.428;2023-09-12T15:05:07;7.70;;;3.88;;
82871;SDS011;72646;43.596;1.428;2023-09-12T15:07:33;8.35;;;3.92;;
82871;SDS011;72646;43.596;1.428;2023-09-12T15:10:02;9.40;;;4.00;;
82871;SDS011;72646;43.596;1.428;2023-09-12T15:12:53;6.93;;;3.40;;
82871;SDS011;72646;43.596;1.428;2023-09-12T15:16:14;7.30;;;3.53;;
82871;SDS011;72646;43.596;1.428;2023-09-12T15:19:17;7.35;;;3.50;;
82871;SDS011;72646;43.596;1.428;2023-09-12T15:22:00;7.30;;;3.65;;
82871;SDS011;72646;43.596;1.428;2023-09-12T15:24:25;7.95;;;3.70;;
82871;SDS011;72646;43.596;1.428;2023-09-12T15:29:17;8.57;;;3.80;;